createdAt,value
2022-09-02T00:04:31.879Z,99146.65
2022-09-02T00:14:40.017Z,99142.69
2022-09-02T00:24:47.025Z,99138.50
2022-09-02T00:34:56.281Z,99135.64
2022-09-02T00:45:05.082Z,99126.23
2022-09-02T00:55:16.019Z,99119.50
2022-09-02T01:05:25.395Z,99120.05
2022-09-02T01:15:30.622Z,99121.45
2022-09-02T01:25:38.609Z,99116.98
2022-09-02T01:35:46.500Z,99118.13
2022-09-02T01:45:57.155Z,99117.27
2022-09-02T01:56:03.305Z,99111.73
2022-09-02T02:06:12.462Z,99109.58
2022-09-02T02:16:19.748Z,99104.96
2022-09-02T02:26:27.052Z,99104.91
2022-09-02T02:36:34.769Z,99105.00
2022-09-02T02:46:41.986Z,99099.45
2022-09-02T02:56:49.103Z,99098.29
2022-09-02T03:06:56.117Z,99096.11
2022-09-02T03:17:02.072Z,99095.64
2022-09-02T03:27:09.051Z,99093.00
2022-09-02T03:37:16.595Z,99096.63
2022-09-02T03:47:24.413Z,99097.79
2022-09-02T03:57:32.156Z,99100.13
2022-09-02T04:07:41.669Z,99100.55
2022-09-02T04:17:49.803Z,99109.33
2022-09-02T04:27:56.833Z,99122.54
2022-09-02T04:38:04.225Z,99122.54
2022-09-02T04:48:11.302Z,99119.11
2022-09-02T04:58:18.438Z,99123.86
2022-09-02T05:08:25.525Z,99121.20
2022-09-02T05:18:32.867Z,99124.96
2022-09-02T05:28:41.360Z,99109.64
2022-09-02T05:38:49.177Z,99111.72
2022-09-02T05:49:15.514Z,99111.75
2022-09-02T05:59:22.610Z,99106.42
2022-09-02T06:09:29.547Z,99107.48
2022-09-02T06:19:37.634Z,99107.55
2022-09-02T06:29:46.196Z,99114.58
2022-09-02T06:39:53.137Z,99114.11
2022-09-02T06:50:03.417Z,99119.75
2022-09-02T07:00:13.062Z,99127.57
2022-09-02T07:10:20.301Z,99125.02
2022-09-02T07:20:28.036Z,99133.09
2022-09-02T07:30:35.653Z,99135.52
2022-09-02T07:40:44.134Z,99136.50
2022-09-02T07:50:51.942Z,99136.88
2022-09-02T08:00:59.122Z,99133.92
2022-09-02T08:11:06.601Z,99129.38
2022-09-02T08:21:13.178Z,99131.70
2022-09-02T08:31:20.667Z,99130.61
2022-09-02T08:41:32.288Z,99130.84
2022-09-02T08:51:41.956Z,99124.81
2022-09-02T09:01:50.590Z,99119.92
2022-09-02T09:11:55.957Z,99114.37
2022-09-02T09:22:03.737Z,99109.23
2022-09-02T09:32:23.083Z,99103.34
2022-09-02T09:42:34.649Z,99095.42
2022-09-02T09:52:43.542Z,99097.52
2022-09-02T10:02:51.279Z,99094.66
2022-09-02T10:12:57.742Z,99084.79
2022-09-02T10:23:13.265Z,99076.71
2022-09-02T10:33:33.023Z,99075.93
2022-09-02T10:43:44.097Z,99076.11
2022-09-02T10:53:57.006Z,99072.16
2022-09-02T11:04:25.027Z,99075.86
2022-09-02T11:14:30.786Z,99066.66
2022-09-02T11:24:46.723Z,99065.54
2022-09-02T11:34:57.253Z,99057.39
2022-09-02T11:45:29.588Z,99044.05
2022-09-02T11:55:34.199Z,99049.05
2022-09-02T12:05:52.051Z,99050.33
2022-09-02T12:16:11.482Z,99055.21
2022-09-02T12:26:20.533Z,99053.86
2022-09-02T12:36:48.312Z,99042.73
2022-09-02T12:46:57.378Z,99032.90
2022-09-02T12:57:05.856Z,99031.36
2022-09-02T13:07:33.446Z,99021.52
2022-09-02T13:28:19.913Z,99001.66
2022-09-02T13:38:28.922Z,98988.10
2022-09-02T13:48:41.145Z,98979.77
2022-09-02T13:58:53.129Z,98977.72
2022-09-02T14:09:02.717Z,98979.51
2022-09-02T14:19:08.526Z,98982.92
2022-09-02T14:29:16.420Z,98978.49
2022-09-02T14:39:23.518Z,98963.86
2022-09-02T14:49:31.289Z,98969.22
2022-09-02T14:59:38.272Z,98956.11
2022-09-02T15:09:46.307Z,98961.48
2022-09-02T15:19:53.473Z,98958.21
2022-09-02T15:30:00.897Z,98949.27
2022-09-02T15:40:05.550Z,98946.46
2022-09-02T15:50:14.308Z,98949.54
2022-09-02T16:00:20.317Z,98934.27
2022-09-02T16:10:27.473Z,98932.93
2022-09-02T16:20:34.767Z,98939.27
2022-09-02T16:30:46.259Z,98942.23
2022-09-02T16:40:58.781Z,98938.95
2022-09-02T16:51:07.067Z,98937.98
2022-09-02T17:01:12.456Z,98935.46
2022-09-02T17:11:19.905Z,98936.93
2022-09-02T17:21:25.439Z,98937.08
2022-09-02T17:31:33.394Z,98937.70
2022-09-02T17:41:57.989Z,98946.20
2022-09-02T17:52:07.778Z,98951.25
2022-09-02T18:02:41.179Z,98959.34
2022-09-02T18:12:48.275Z,98963.63
2022-09-02T18:22:57.064Z,98965.33
2022-09-02T18:33:16.593Z,98971.58
2022-09-02T18:43:22.351Z,98971.42
2022-09-02T18:53:30.153Z,98974.03
2022-09-02T19:03:37.978Z,98974.88
2022-09-02T19:13:47.069Z,98974.83
2022-09-02T19:23:54.293Z,98972.80
2022-09-02T19:34:05.046Z,98972.14
2022-09-02T19:44:15.577Z,98980.38
2022-09-02T19:54:23.029Z,98987.23
2022-09-02T20:04:30.062Z,98989.30
2022-09-02T20:14:36.975Z,98984.92
2022-09-02T20:24:43.290Z,98988.63
2022-09-02T20:34:53.553Z,98986.67
2022-09-02T20:44:59.563Z,98990.15
2022-09-02T20:55:13.344Z,98985.43
2022-09-02T21:05:25.131Z,98985.50
2022-09-02T21:15:36.666Z,98989.12
2022-09-02T21:25:44.645Z,98994.02
2022-09-02T21:35:54.590Z,98994.39
2022-09-02T21:46:00.090Z,98997.70
2022-09-02T21:56:07.431Z,98998.30
2022-09-02T22:06:13.618Z,99003.02
2022-09-02T22:16:21.386Z,98997.07
2022-09-02T22:26:31.911Z,98985.94
2022-09-02T22:36:49.168Z,98988.92
2022-09-02T22:47:11.488Z,98989.09
2022-09-02T22:57:16.764Z,98986.51
2022-09-02T23:07:24.384Z,98978.68
2022-09-02T23:17:33.755Z,98976.95
2022-09-02T23:27:43.547Z,98974.56
2022-09-02T23:37:53.003Z,98972.58
2022-09-02T23:48:27.125Z,98967.02
2022-09-02T23:58:43.628Z,98968.27
